createdAt,value
2022-11-16T00:01:34.651Z,10.37
2022-11-16T00:06:36.791Z,10.38
2022-11-16T00:11:38.401Z,10.38
2022-11-16T00:16:40.624Z,10.40
2022-11-16T00:21:42.135Z,10.43
2022-11-16T00:26:44.082Z,10.43
2022-11-16T00:31:46.572Z,10.41
2022-11-16T00:36:48.153Z,10.44
2022-11-16T00:41:49.932Z,10.43
2022-11-16T00:46:51.319Z,10.40
2022-11-16T00:51:52.715Z,10.43
2022-11-16T00:56:54.110Z,10.46
2022-11-16T01:01:55.804Z,10.41
2022-11-16T01:06:57.497Z,10.41
2022-11-16T01:12:11.048Z,10.44
2022-11-16T01:17:13.958Z,10.44
2022-11-16T01:22:15.399Z,10.44
2022-11-16T01:27:16.787Z,10.53
2022-11-16T01:32:18.156Z,10.53
2022-11-16T01:37:19.992Z,10.53
2022-11-16T01:42:24.720Z,10.54
2022-11-16T01:47:26.194Z,10.50
2022-11-16T01:52:31.496Z,10.49
2022-11-16T01:57:38.036Z,10.49
2022-11-16T02:02:39.535Z,10.48
2022-11-16T02:08:05.719Z,10.47
2022-11-16T02:13:18.109Z,10.44
2022-11-16T02:18:55.857Z,10.46
2022-11-16T02:24:15.534Z,10.45
2022-11-16T02:29:16.844Z,10.43
2022-11-16T02:34:21.179Z,10.40
2022-11-16T02:39:27.144Z,10.38
2022-11-16T02:44:36.121Z,10.39
2022-11-16T02:49:44.124Z,10.39
2022-11-16T02:54:45.479Z,10.35
2022-11-16T02:59:50.758Z,10.34
2022-11-16T03:05:01.559Z,10.36
2022-11-16T03:10:03.665Z,10.37
2022-11-16T03:15:09.742Z,10.37
2022-11-16T03:20:18.205Z,10.37
2022-11-16T03:25:22.531Z,10.35
2022-11-16T03:30:27.598Z,10.41
2022-11-16T03:35:36.650Z,10.41
2022-11-16T03:40:40.157Z,10.43
2022-11-16T03:45:42.360Z,10.46
2022-11-16T03:50:44.071Z,10.47
2022-11-16T03:55:49.604Z,10.47
2022-11-16T04:00:51.560Z,10.52
2022-11-16T04:06:11.650Z,10.37
2022-11-16T04:11:37.411Z,9.79
2022-11-16T04:16:57.088Z,9.60
2022-11-16T04:22:23.996Z,9.55
2022-11-16T04:27:48.129Z,9.54
2022-11-16T04:33:08.583Z,9.57
2022-11-16T04:38:10.164Z,9.47
2022-11-16T04:43:11.562Z,9.45
2022-11-16T04:48:14.607Z,9.49
2022-11-16T04:53:16.003Z,9.45
2022-11-16T04:58:17.404Z,9.45
2022-11-16T05:03:18.989Z,9.44
2022-11-16T05:08:20.347Z,9.41
2022-11-16T05:13:21.757Z,9.42
2022-11-16T05:18:23.090Z,9.41
2022-11-16T05:23:43.129Z,9.37
2022-11-16T05:28:44.508Z,9.35
2022-11-16T05:33:46.232Z,9.38
2022-11-16T05:38:47.699Z,9.37
2022-11-16T05:43:49.236Z,9.46
2022-11-16T05:48:52.166Z,9.55
2022-11-16T05:53:53.666Z,9.55
2022-11-16T05:58:55.448Z,9.52
2022-11-16T06:04:01.214Z,9.63
2022-11-16T06:09:05.718Z,9.77
2022-11-16T06:14:07.719Z,9.69
2022-11-16T06:19:09.337Z,9.57
2022-11-16T06:24:10.780Z,9.47
2022-11-16T06:29:12.192Z,9.41
2022-11-16T06:34:13.839Z,9.29
2022-11-16T06:39:15.770Z,9.18
2022-11-16T06:44:17.209Z,9.13
2022-11-16T06:49:18.637Z,9.07
2022-11-16T06:54:22.427Z,9.03
2022-11-16T06:59:23.861Z,8.82
2022-11-16T07:04:25.283Z,8.77
2022-11-16T07:09:30.982Z,8.72
2022-11-16T07:14:32.349Z,8.65
2022-11-16T07:19:33.781Z,8.54
2022-11-16T07:24:36.650Z,8.49
2022-11-16T07:29:38.281Z,8.44
2022-11-16T07:34:39.681Z,8.44
2022-11-16T07:39:41.361Z,8.37
2022-11-16T07:44:42.883Z,8.30
2022-11-16T07:49:45.462Z,8.26
2022-11-16T07:54:46.965Z,8.27
2022-11-16T07:59:49.713Z,8.30
2022-11-16T08:04:52.424Z,8.31
2022-11-16T08:09:54.260Z,8.35
2022-11-16T08:14:55.755Z,8.44
2022-11-16T08:19:57.434Z,8.45
2022-11-16T08:25:00.525Z,8.54
2022-11-16T08:30:04.835Z,8.65
2022-11-16T08:35:06.667Z,8.70
2022-11-16T08:40:08.537Z,8.75
2022-11-16T08:45:10.153Z,8.81
2022-11-16T08:50:11.530Z,8.86
2022-11-16T08:55:13.923Z,8.83
2022-11-16T09:00:15.904Z,8.86
2022-11-16T09:05:17.258Z,9.00
2022-11-16T09:10:22.894Z,9.00
2022-11-16T09:15:24.281Z,8.95
2022-11-16T09:20:26.369Z,9.12
2022-11-16T09:25:27.806Z,9.22
2022-11-16T09:30:29.169Z,9.27
2022-11-16T09:35:31.051Z,9.32
2022-11-16T09:40:41.994Z,9.37
2022-11-16T09:45:50.787Z,9.46
2022-11-16T09:51:08.093Z,9.35
2022-11-16T09:56:16.478Z,9.46
2022-11-16T10:01:34.997Z,9.64
2022-11-16T10:07:16.189Z,9.59
2022-11-16T10:12:43.653Z,9.73
2022-11-16T10:18:07.055Z,9.79
2022-11-16T10:23:41.851Z,9.94
2022-11-16T10:29:00.937Z,9.93
2022-11-16T10:39:25.608Z,10.05
2022-11-16T10:44:38.725Z,10.21
2022-11-16T10:49:49.195Z,10.45
2022-11-16T10:54:51.411Z,10.83
2022-11-16T10:59:59.503Z,10.85
2022-11-16T11:05:13.264Z,11.13
2022-11-16T11:10:30.720Z,11.35
2022-11-16T11:15:34.300Z,11.40
2022-11-16T11:20:39.088Z,11.43
2022-11-16T11:25:55.602Z,11.53
2022-11-16T11:31:09.201Z,11.71
2022-11-16T11:36:22.817Z,12.39
2022-11-16T11:41:24.425Z,11.63
2022-11-16T11:46:56.030Z,11.83
2022-11-16T11:51:56.275Z,12.39
2022-11-16T11:57:01.447Z,11.97
2022-11-16T12:02:38.013Z,12.07
2022-11-16T12:08:05.182Z,11.31
2022-11-16T12:13:12.797Z,11.12
2022-11-16T12:18:23.848Z,11.22
2022-11-16T12:23:51.603Z,10.93
2022-11-16T12:29:25.865Z,10.79
2022-11-16T12:35:05.056Z,10.78
2022-11-16T12:40:38.068Z,10.63
2022-11-16T12:45:58.019Z,10.99
2022-11-16T12:51:15.294Z,11.18
2022-11-16T12:56:29.326Z,11.18
2022-11-16T13:01:40.910Z,10.97
2022-11-16T13:06:51.899Z,11.01
2022-11-16T13:12:00.537Z,11.19
2022-11-16T13:17:03.975Z,11.35
2022-11-16T13:22:14.038Z,11.17
2022-11-16T13:27:34.438Z,11.14
2022-11-16T13:32:47.343Z,11.01
2022-11-16T13:37:50.374Z,10.93
2022-11-16T13:43:16.985Z,10.83
2022-11-16T13:48:21.567Z,10.83
2022-11-16T13:58:55.213Z,10.74
2022-11-16T14:04:35.372Z,10.77
2022-11-16T14:09:44.954Z,10.64
2022-11-16T14:15:17.109Z,10.44
2022-11-16T14:20:31.399Z,10.64
2022-11-16T14:25:40.466Z,10.58
2022-11-16T14:31:12.693Z,10.57
2022-11-16T14:36:15.072Z,10.65
2022-11-16T14:41:22.975Z,10.68
2022-11-16T14:46:32.895Z,10.70
2022-11-16T14:51:37.732Z,10.67
2022-11-16T14:56:55.831Z,10.45
2022-11-16T15:02:00.031Z,10.53
2022-11-16T15:07:03.639Z,10.28
2022-11-16T15:12:30.239Z,10.13
2022-11-16T15:17:33.586Z,10.20
2022-11-16T15:22:42.010Z,9.96
2022-11-16T15:27:43.662Z,9.76
2022-11-16T15:32:47.908Z,9.59
2022-11-16T15:38:03.314Z,9.53
2022-11-16T15:43:06.630Z,9.43
2022-11-16T15:48:17.037Z,9.34
2022-11-16T15:53:40.840Z,9.30
2022-11-16T15:58:42.767Z,9.08
2022-11-16T16:03:54.400Z,9.06
2022-11-16T16:09:06.230Z,9.00
2022-11-16T16:14:10.801Z,8.93
2022-11-16T16:19:34.401Z,8.93
2022-11-16T16:24:44.669Z,8.98
2022-11-16T16:29:48.378Z,8.93
2022-11-16T16:34:50.648Z,8.82
2022-11-16T16:39:52.101Z,8.87
2022-11-16T16:44:55.179Z,8.80
2022-11-16T16:49:59.317Z,8.82
2022-11-16T16:55:00.868Z,8.74
2022-11-16T17:00:02.615Z,8.86
2022-11-16T17:05:04.780Z,8.81
2022-11-16T17:10:07.038Z,8.85
2022-11-16T17:15:13.843Z,8.93
2022-11-16T17:20:18.990Z,8.96
2022-11-16T17:25:21.131Z,8.93
2022-11-16T17:30:24.204Z,8.90
2022-11-16T17:35:25.734Z,8.91
2022-11-16T17:40:28.978Z,8.93
2022-11-16T17:45:30.568Z,9.05
2022-11-16T17:50:31.933Z,9.06
2022-11-16T17:55:33.448Z,9.09
2022-11-16T18:00:34.988Z,9.03
2022-11-16T18:05:37.643Z,9.07
2022-11-16T18:10:40.502Z,9.02
2022-11-16T18:15:42.681Z,8.89
2022-11-16T18:20:44.872Z,8.84
2022-11-16T18:25:46.293Z,9.01
2022-11-16T18:30:47.892Z,8.96
2022-11-16T18:35:50.767Z,9.02
2022-11-16T18:41:11.234Z,8.85
2022-11-16T18:46:12.797Z,8.75
2022-11-16T18:51:16.329Z,8.82
2022-11-16T18:56:18.427Z,8.80
2022-11-16T19:01:22.986Z,8.75
2022-11-16T19:06:24.705Z,8.65
2022-11-16T19:11:27.890Z,8.59
2022-11-16T19:16:30.455Z,8.55
2022-11-16T19:21:32.050Z,8.49
2022-11-16T19:26:33.525Z,8.46
2022-11-16T19:31:34.956Z,8.45
2022-11-16T19:36:37.263Z,8.53
2022-11-16T19:41:38.762Z,8.63
2022-11-16T19:46:45.138Z,8.56
2022-11-16T19:51:46.549Z,8.67
2022-11-16T19:56:54.747Z,8.79
2022-11-16T20:01:56.594Z,8.89
2022-11-16T20:06:59.926Z,8.85
2022-11-16T20:12:01.364Z,9.10
2022-11-16T20:17:03.025Z,8.97
2022-11-16T20:22:05.527Z,8.93
2022-11-16T20:27:07.823Z,8.95
2022-11-16T20:32:09.320Z,8.90
2022-11-16T20:37:11.844Z,8.88
2022-11-16T20:42:13.894Z,8.80
2022-11-16T20:47:17.632Z,8.89
2022-11-16T20:52:21.501Z,8.88
2022-11-16T20:57:30.068Z,8.76
2022-11-16T21:02:31.558Z,8.76
2022-11-16T21:07:33.133Z,8.76
2022-11-16T21:12:55.056Z,8.73
2022-11-16T21:18:01.422Z,8.79
2022-11-16T21:23:04.230Z,8.68
2022-11-16T21:28:07.264Z,8.70
2022-11-16T21:33:11.641Z,8.76
2022-11-16T21:38:14.049Z,8.69
2022-11-16T21:43:16.582Z,8.68
2022-11-16T21:48:18.365Z,8.70
2022-11-16T21:53:19.953Z,8.68
2022-11-16T21:58:22.576Z,8.67
2022-11-16T22:03:30.008Z,8.71
2022-11-16T22:08:31.806Z,8.73
2022-11-16T22:13:34.221Z,8.73
2022-11-16T22:18:36.174Z,8.80
2022-11-16T22:23:38.119Z,8.89
2022-11-16T22:28:40.056Z,8.88
2022-11-16T22:33:42.136Z,8.92
2022-11-16T22:38:43.595Z,8.86
2022-11-16T22:43:45.114Z,8.93
2022-11-16T22:48:47.917Z,8.94
2022-11-16T22:53:57.583Z,8.96
2022-11-16T22:59:00.730Z,8.92
2022-11-16T23:04:02.916Z,8.89
2022-11-16T23:09:05.828Z,8.84
2022-11-16T23:14:29.291Z,8.76
2022-11-16T23:19:49.169Z,8.78
2022-11-16T23:25:08.942Z,8.73
2022-11-16T23:30:13.347Z,8.74
2022-11-16T23:35:15.037Z,8.74
2022-11-16T23:40:17.870Z,8.75
2022-11-16T23:45:20.519Z,8.77
2022-11-16T23:50:22.045Z,8.74
2022-11-16T23:55:26.837Z,8.76
